sensor_id;sensor_type;location;lat;lon;timestamp;P1;durP1;ratioP1;P2;durP2;ratioP2
33714;SDS011;20043;50.998;4.754;2023-06-26T00:00:14;8.60;;;5.18;;
33714;SDS011;20043;50.998;4.754;2023-06-26T00:02:40;16.23;;;4.95;;
33714;SDS011;20043;50.998;4.754;2023-06-26T00:05:05;14.05;;;5.18;;
33714;SDS011;20043;50.998;4.754;2023-06-26T00:07:31;8.02;;;4.72;;
33714;SDS011;20043;50.998;4.754;2023-06-26T00:10:00;11.35;;;4.78;;
33714;SDS011;20043;50.998;4.754;2023-06-26T00:12:27;7.68;;;4.38;;
33714;SDS011;20043;50.998;4.754;2023-06-26T00:14:53;7.70;;;4.55;;
33714;SDS011;20043;50.998;4.754;2023-06-26T00:17:19;7.95;;;4.10;;
33714;SDS011;20043;50.998;4.754;2023-06-26T00:19:44;8.30;;;3.95;;
33714;SDS011;20043;50.998;4.754;2023-06-26T00:22:10;7.60;;;4.57;;
33714;SDS011;20043;50.998;4.754;2023-06-26T00:24:36;8.50;;;4.22;;
33714;SDS011;20043;50.998;4.754;2023-06-26T00:27:02;6.10;;;4.22;;
33714;SDS011;20043;50.998;4.754;2023-06-26T00:29:27;7.32;;;4.47;;
33714;SDS011;20043;50.998;4.754;2023-06-26T00:31:53;7.70;;;3.83;;
33714;SDS011;20043;50.998;4.754;2023-06-26T00:34:18;10.85;;;4.38;;
33714;SDS011;20043;50.998;4.754;2023-06-26T00:36:44;6.32;;;4.55;;
33714;SDS011;20043;50.998;4.754;2023-06-26T00:39:10;7.72;;;4.30;;
33714;SDS011;20043;50.998;4.754;2023-06-26T00:41:39;6.03;;;4.05;;
33714;SDS011;20043;50.998;4.754;2023-06-26T00:44:05;6.63;;;4.60;;
33714;SDS011;20043;50.998;4.754;2023-06-26T00:46:30;8.10;;;4.38;;
33714;SDS011;20043;50.998;4.754;2023-06-26T00:48:58;7.95;;;4.20;;
33714;SDS011;20043;50.998;4.754;2023-06-26T00:51:25;6.35;;;4.50;;
33714;SDS011;20043;50.998;4.754;2023-06-26T00:53:52;5.35;;;4.47;;
33714;SDS011;20043;50.998;4.754;2023-06-26T00:56:18;8.48;;;4.50;;
33714;SDS011;20043;50.998;4.754;2023-06-26T00:58:45;5.93;;;4.20;;
33714;SDS011;20043;50.998;4.754;2023-06-26T01:01:10;6.13;;;4.40;;
33714;SDS011;20043;50.998;4.754;2023-06-26T01:03:42;8.68;;;4.25;;
33714;SDS011;20043;50.998;4.754;2023-06-26T01:06:09;6.18;;;4.03;;
33714;SDS011;20043;50.998;4.754;2023-06-26T01:08:36;8.80;;;3.90;;
33714;SDS011;20043;50.998;4.754;2023-06-26T01:11:03;5.25;;;4.13;;
33714;SDS011;20043;50.998;4.754;2023-06-26T01:13:29;16.35;;;4.53;;
33714;SDS011;20043;50.998;4.754;2023-06-26T01:15:56;7.50;;;4.68;;
33714;SDS011;20043;50.998;4.754;2023-06-26T01:18:23;6.15;;;4.43;;
33714;SDS011;20043;50.998;4.754;2023-06-26T01:20:50;8.15;;;4.47;;
33714;SDS011;20043;50.998;4.754;2023-06-26T01:28:37;9.10;;;4.50;;
33714;SDS011;20043;50.998;4.754;2023-06-26T01:31:05;7.95;;;4.47;;
33714;SDS011;20043;50.998;4.754;2023-06-26T01:33:32;7.35;;;3.95;;
33714;SDS011;20043;50.998;4.754;2023-06-26T01:35:58;8.48;;;4.40;;
33714;SDS011;20043;50.998;4.754;2023-06-26T01:38:23;6.50;;;4.40;;
33714;SDS011;20043;50.998;4.754;2023-06-26T01:40:50;8.00;;;4.07;;
33714;SDS011;20043;50.998;4.754;2023-06-26T01:46:27;7.55;;;3.90;;
33714;SDS011;20043;50.998;4.754;2023-06-26T01:54:39;8.23;;;3.90;;
33714;SDS011;20043;50.998;4.754;2023-06-26T01:57:21;9.00;;;3.80;;
33714;SDS011;20043;50.998;4.754;2023-06-26T01:59:48;14.30;;;4.43;;
33714;SDS011;20043;50.998;4.754;2023-06-26T02:02:15;8.20;;;4.00;;
33714;SDS011;20043;50.998;4.754;2023-06-26T02:04:41;7.03;;;4.03;;
33714;SDS011;20043;50.998;4.754;2023-06-26T02:07:06;8.63;;;3.53;;
33714;SDS011;20043;50.998;4.754;2023-06-26T02:09:34;8.88;;;4.00;;
33714;SDS011;20043;50.998;4.754;2023-06-26T02:12:00;6.55;;;3.78;;
33714;SDS011;20043;50.998;4.754;2023-06-26T02:14:25;8.55;;;4.00;;
33714;SDS011;20043;50.998;4.754;2023-06-26T02:16:51;7.80;;;3.75;;
33714;SDS011;20043;50.998;4.754;2023-06-26T02:19:16;8.40;;;3.90;;
33714;SDS011;20043;50.998;4.754;2023-06-26T02:21:47;6.78;;;3.67;;
33714;SDS011;20043;50.998;4.754;2023-06-26T02:24:14;8.35;;;4.05;;
33714;SDS011;20043;50.998;4.754;2023-06-26T02:26:40;9.02;;;3.80;;
33714;SDS011;20043;50.998;4.754;2023-06-26T02:29:05;8.02;;;3.70;;
33714;SDS011;20043;50.998;4.754;2023-06-26T02:31:31;10.85;;;4.25;;
33714;SDS011;20043;50.998;4.754;2023-06-26T02:33:57;8.68;;;3.83;;
33714;SDS011;20043;50.998;4.754;2023-06-26T02:36:22;7.40;;;3.70;;
33714;SDS011;20043;50.998;4.754;2023-06-26T02:38:48;8.13;;;4.03;;
33714;SDS011;20043;50.998;4.754;2023-06-26T02:41:14;9.43;;;4.07;;
33714;SDS011;20043;50.998;4.754;2023-06-26T02:43:39;9.45;;;3.70;;
33714;SDS011;20043;50.998;4.754;2023-06-26T02:46:05;6.72;;;4.00;;
33714;SDS011;20043;50.998;4.754;2023-06-26T02:48:30;8.98;;;4.18;;
33714;SDS011;20043;50.998;4.754;2023-06-26T02:51:03;8.40;;;4.22;;
33714;SDS011;20043;50.998;4.754;2023-06-26T02:53:28;13.88;;;4.57;;
33714;SDS011;20043;50.998;4.754;2023-06-26T02:55:54;8.02;;;4.40;;
33714;SDS011;20043;50.998;4.754;2023-06-26T02:58:19;9.45;;;4.00;;
33714;SDS011;20043;50.998;4.754;2023-06-26T03:00:45;10.45;;;4.00;;
33714;SDS011;20043;50.998;4.754;2023-06-26T03:03:11;9.23;;;3.95;;
33714;SDS011;20043;50.998;4.754;2023-06-26T03:05:44;11.18;;;3.85;;
33714;SDS011;20043;50.998;4.754;2023-06-26T03:08:09;10.65;;;4.00;;
33714;SDS011;20043;50.998;4.754;2023-06-26T03:10:35;11.63;;;4.13;;
33714;SDS011;20043;50.998;4.754;2023-06-26T03:13:01;9.88;;;4.05;;
33714;SDS011;20043;50.998;4.754;2023-06-26T03:15:26;14.43;;;4.18;;
33714;SDS011;20043;50.998;4.754;2023-06-26T03:17:52;15.80;;;4.13;;
33714;SDS011;20043;50.998;4.754;2023-06-26T03:20:17;10.65;;;3.85;;
33714;SDS011;20043;50.998;4.754;2023-06-26T03:22:43;10.10;;;4.22;;
33714;SDS011;20043;50.998;4.754;2023-06-26T03:25:08;16.50;;;4.38;;
33714;SDS011;20043;50.998;4.754;2023-06-26T03:27:34;9.70;;;4.13;;
33714;SDS011;20043;50.998;4.754;2023-06-26T03:30:00;15.45;;;4.85;;
33714;SDS011;20043;50.998;4.754;2023-06-26T03:32:25;12.77;;;4.22;;
33714;SDS011;20043;50.998;4.754;2023-06-26T03:34:51;11.02;;;4.50;;
33714;SDS011;20043;50.998;4.754;2023-06-26T03:37:18;16.02;;;4.60;;
33714;SDS011;20043;50.998;4.754;2023-06-26T03:39:43;11.25;;;4.03;;
33714;SDS011;20043;50.998;4.754;2023-06-26T03:42:09;10.63;;;4.35;;
33714;SDS011;20043;50.998;4.754;2023-06-26T03:44:34;12.10;;;4.72;;
33714;SDS011;20043;50.998;4.754;2023-06-26T03:47:00;12.93;;;4.38;;
33714;SDS011;20043;50.998;4.754;2023-06-26T03:49:26;11.77;;;4.63;;
33714;SDS011;20043;50.998;4.754;2023-06-26T03:51:51;12.02;;;4.70;;
33714;SDS011;20043;50.998;4.754;2023-06-26T03:54:17;20.73;;;4.78;;
33714;SDS011;20043;50.998;4.754;2023-06-26T03:56:42;10.43;;;4.00;;
33714;SDS011;20043;50.998;4.754;2023-06-26T03:59:08;13.13;;;4.85;;
33714;SDS011;20043;50.998;4.754;2023-06-26T04:01:35;14.32;;;4.78;;
33714;SDS011;20043;50.998;4.754;2023-06-26T04:04:01;14.80;;;5.18;;
33714;SDS011;20043;50.998;4.754;2023-06-26T04:06:28;14.73;;;5.38;;
33714;SDS011;20043;50.998;4.754;2023-06-26T04:08:53;12.30;;;4.80;;
33714;SDS011;20043;50.998;4.754;2023-06-26T04:11:19;14.68;;;5.30;;
33714;SDS011;20043;50.998;4.754;2023-06-26T04:13:44;14.65;;;4.45;;
33714;SDS011;20043;50.998;4.754;2023-06-26T04:16:10;17.20;;;5.53;;
33714;SDS011;20043;50.998;4.754;2023-06-26T04:18:36;20.17;;;5.15;;
33714;SDS011;20043;50.998;4.754;2023-06-26T04:21:12;21.38;;;5.35;;
33714;SDS011;20043;50.998;4.754;2023-06-26T04:23:40;14.00;;;4.53;;
33714;SDS011;20043;50.998;4.754;2023-06-26T04:26:06;19.10;;;5.00;;
33714;SDS011;20043;50.998;4.754;2023-06-26T04:28:33;20.17;;;5.05;;
33714;SDS011;20043;50.998;4.754;2023-06-26T04:30:59;12.80;;;4.22;;
33714;SDS011;20043;50.998;4.754;2023-06-26T04:33:26;14.15;;;4.60;;
33714;SDS011;20043;50.998;4.754;2023-06-26T04:35:52;15.88;;;4.80;;
33714;SDS011;20043;50.998;4.754;2023-06-26T04:38:18;13.88;;;4.75;;
33714;SDS011;20043;50.998;4.754;2023-06-26T04:40:46;19.83;;;4.57;;
33714;SDS011;20043;50.998;4.754;2023-06-26T04:43:12;19.08;;;5.03;;
33714;SDS011;20043;50.998;4.754;2023-06-26T04:45:38;18.77;;;4.57;;
33714;SDS011;20043;50.998;4.754;2023-06-26T04:48:03;15.30;;;4.72;;
33714;SDS011;20043;50.998;4.754;2023-06-26T04:50:30;15.68;;;4.97;;
33714;SDS011;20043;50.998;4.754;2023-06-26T04:52:58;17.42;;;4.60;;
33714;SDS011;20043;50.998;4.754;2023-06-26T04:55:24;15.95;;;4.88;;
33714;SDS011;20043;50.998;4.754;2023-06-26T04:57:50;10.93;;;4.30;;
33714;SDS011;20043;50.998;4.754;2023-06-26T05:00:16;18.23;;;4.97;;
33714;SDS011;20043;50.998;4.754;2023-06-26T05:02:41;19.58;;;4.40;;
33714;SDS011;20043;50.998;4.754;2023-06-26T05:05:07;14.85;;;4.47;;
33714;SDS011;20043;50.998;4.754;2023-06-26T05:07:33;13.50;;;4.28;;
33714;SDS011;20043;50.998;4.754;2023-06-26T05:09:59;15.82;;;4.40;;
33714;SDS011;20043;50.998;4.754;2023-06-26T05:12:25;14.93;;;4.97;;
33714;SDS011;20043;50.998;4.754;2023-06-26T05:14:50;15.40;;;4.00;;
33714;SDS011;20043;50.998;4.754;2023-06-26T05:17:16;18.50;;;5.55;;
33714;SDS011;20043;50.998;4.754;2023-06-26T05:19:42;14.48;;;4.03;;
33714;SDS011;20043;50.998;4.754;2023-06-26T05:22:07;20.55;;;4.35;;
33714;SDS011;20043;50.998;4.754;2023-06-26T05:24:34;14.82;;;4.00;;
33714;SDS011;20043;50.998;4.754;2023-06-26T05:27:01;16.98;;;3.97;;
33714;SDS011;20043;50.998;4.754;2023-06-26T05:29:27;16.33;;;3.80;;
33714;SDS011;20043;50.998;4.754;2023-06-26T05:31:55;13.77;;;3.70;;
33714;SDS011;20043;50.998;4.754;2023-06-26T05:34:25;16.73;;;4.20;;
33714;SDS011;20043;50.998;4.754;2023-06-26T05:36:59;14.30;;;4.43;;
33714;SDS011;20043;50.998;4.754;2023-06-26T05:39:26;20.20;;;4.30;;
33714;SDS011;20043;50.998;4.754;2023-06-26T05:41:52;19.27;;;4.35;;
33714;SDS011;20043;50.998;4.754;2023-06-26T05:44:19;14.80;;;4.22;;
33714;SDS011;20043;50.998;4.754;2023-06-26T05:46:45;15.90;;;4.55;;
33714;SDS011;20043;50.998;4.754;2023-06-26T05:49:11;16.83;;;4.30;;
33714;SDS011;20043;50.998;4.754;2023-06-26T05:51:36;13.57;;;3.72;;
33714;SDS011;20043;50.998;4.754;2023-06-26T05:54:02;14.50;;;4.10;;
33714;SDS011;20043;50.998;4.754;2023-06-26T05:56:28;15.43;;;3.97;;
33714;SDS011;20043;50.998;4.754;2023-06-26T05:58:54;17.67;;;4.30;;
33714;SDS011;20043;50.998;4.754;2023-06-26T06:01:20;13.02;;;3.80;;
33714;SDS011;20043;50.998;4.754;2023-06-26T06:03:45;17.30;;;3.80;;
33714;SDS011;20043;50.998;4.754;2023-06-26T06:06:11;14.70;;;3.97;;
33714;SDS011;20043;50.998;4.754;2023-06-26T06:08:37;17.33;;;3.92;;
33714;SDS011;20043;50.998;4.754;2023-06-26T06:11:03;13.65;;;3.63;;
33714;SDS011;20043;50.998;4.754;2023-06-26T06:13:28;14.23;;;3.47;;
33714;SDS011;20043;50.998;4.754;2023-06-26T06:15:54;19.63;;;4.20;;
33714;SDS011;20043;50.998;4.754;2023-06-26T06:18:20;12.93;;;3.72;;
33714;SDS011;20043;50.998;4.754;2023-06-26T06:20:46;15.60;;;3.83;;
33714;SDS011;20043;50.998;4.754;2023-06-26T06:23:12;17.95;;;3.72;;
33714;SDS011;20043;50.998;4.754;2023-06-26T06:25:37;12.20;;;3.47;;
33714;SDS011;20043;50.998;4.754;2023-06-26T06:28:04;12.95;;;3.90;;
33714;SDS011;20043;50.998;4.754;2023-06-26T06:30:30;16.98;;;3.10;;
33714;SDS011;20043;50.998;4.754;2023-06-26T06:32:55;17.13;;;4.00;;
33714;SDS011;20043;50.998;4.754;2023-06-26T06:35:22;14.90;;;3.35;;
33714;SDS011;20043;50.998;4.754;2023-06-26T06:37:48;11.48;;;3.47;;
33714;SDS011;20043;50.998;4.754;2023-06-26T06:40:14;13.40;;;3.42;;
33714;SDS011;20043;50.998;4.754;2023-06-26T06:42:40;17.85;;;3.83;;
33714;SDS011;20043;50.998;4.754;2023-06-26T06:45:06;14.85;;;3.70;;
33714;SDS011;20043;50.998;4.754;2023-06-26T06:47:32;13.40;;;3.40;;
33714;SDS011;20043;50.998;4.754;2023-06-26T06:49:59;12.75;;;3.08;;
33714;SDS011;20043;50.998;4.754;2023-06-26T06:52:34;18.40;;;3.42;;
33714;SDS011;20043;50.998;4.754;2023-06-26T06:55:01;14.85;;;3.72;;
33714;SDS011;20043;50.998;4.754;2023-06-26T06:57:31;14.93;;;3.05;;
33714;SDS011;20043;50.998;4.754;2023-06-26T07:00:01;16.10;;;3.10;;
33714;SDS011;20043;50.998;4.754;2023-06-26T07:02:29;13.02;;;3.25;;
33714;SDS011;20043;50.998;4.754;2023-06-26T07:04:55;10.77;;;2.85;;
33714;SDS011;20043;50.998;4.754;2023-06-26T07:07:21;9.48;;;2.85;;
33714;SDS011;20043;50.998;4.754;2023-06-26T07:09:46;14.98;;;3.03;;
33714;SDS011;20043;50.998;4.754;2023-06-26T07:12:12;13.23;;;2.78;;
33714;SDS011;20043;50.998;4.754;2023-06-26T07:14:38;15.75;;;3.40;;
33714;SDS011;20043;50.998;4.754;2023-06-26T07:17:04;11.55;;;3.10;;
33714;SDS011;20043;50.998;4.754;2023-06-26T07:19:29;11.73;;;2.95;;
33714;SDS011;20043;50.998;4.754;2023-06-26T07:21:55;16.45;;;3.72;;
33714;SDS011;20043;50.998;4.754;2023-06-26T07:24:20;10.57;;;2.97;;
33714;SDS011;20043;50.998;4.754;2023-06-26T07:26:46;12.70;;;2.88;;
33714;SDS011;20043;50.998;4.754;2023-06-26T07:29:12;14.75;;;3.30;;
33714;SDS011;20043;50.998;4.754;2023-06-26T07:31:37;10.38;;;2.70;;
33714;SDS011;20043;50.998;4.754;2023-06-26T07:34:03;13.43;;;2.92;;
33714;SDS011;20043;50.998;4.754;2023-06-26T07:36:28;14.88;;;3.03;;
33714;SDS011;20043;50.998;4.754;2023-06-26T07:38:54;14.52;;;2.42;;
33714;SDS011;20043;50.998;4.754;2023-06-26T07:41:19;12.55;;;3.28;;
33714;SDS011;20043;50.998;4.754;2023-06-26T07:43:45;12.95;;;2.88;;
33714;SDS011;20043;50.998;4.754;2023-06-26T07:46:10;14.05;;;2.67;;
33714;SDS011;20043;50.998;4.754;2023-06-26T07:48:36;12.05;;;2.65;;
33714;SDS011;20043;50.998;4.754;2023-06-26T07:51:02;22.88;;;3.53;;
33714;SDS011;20043;50.998;4.754;2023-06-26T07:53:27;10.65;;;3.00;;
33714;SDS011;20043;50.998;4.754;2023-06-26T07:55:53;7.28;;;2.15;;
33714;SDS011;20043;50.998;4.754;2023-06-26T07:58:18;14.35;;;2.80;;
33714;SDS011;20043;50.998;4.754;2023-06-26T08:00:44;10.68;;;2.40;;
33714;SDS011;20043;50.998;4.754;2023-06-26T08:03:09;9.43;;;2.40;;
33714;SDS011;20043;50.998;4.754;2023-06-26T08:05:35;10.68;;;2.35;;
33714;SDS011;20043;50.998;4.754;2023-06-26T08:08:00;13.63;;;2.85;;
33714;SDS011;20043;50.998;4.754;2023-06-26T08:10:27;13.88;;;2.88;;
33714;SDS011;20043;50.998;4.754;2023-06-26T08:12:53;10.10;;;2.42;;
33714;SDS011;20043;50.998;4.754;2023-06-26T08:15:20;8.80;;;2.30;;
33714;SDS011;20043;50.998;4.754;2023-06-26T08:17:46;10.90;;;2.63;;
33714;SDS011;20043;50.998;4.754;2023-06-26T08:20:12;11.23;;;2.33;;
33714;SDS011;20043;50.998;4.754;2023-06-26T08:22:37;15.77;;;2.63;;
33714;SDS011;20043;50.998;4.754;2023-06-26T08:25:03;9.70;;;2.45;;
33714;SDS011;20043;50.998;4.754;2023-06-26T08:27:30;9.98;;;2.15;;
33714;SDS011;20043;50.998;4.754;2023-06-26T08:29:56;8.30;;;1.95;;
33714;SDS011;20043;50.998;4.754;2023-06-26T08:32:22;11.95;;;2.50;;
33714;SDS011;20043;50.998;4.754;2023-06-26T08:34:48;13.68;;;2.97;;
33714;SDS011;20043;50.998;4.754;2023-06-26T08:37:13;10.48;;;1.92;;
33714;SDS011;20043;50.998;4.754;2023-06-26T08:39:39;9.07;;;2.20;;
33714;SDS011;20043;50.998;4.754;2023-06-26T08:42:04;10.18;;;1.95;;
33714;SDS011;20043;50.998;4.754;2023-06-26T08:44:30;10.23;;;2.00;;
33714;SDS011;20043;50.998;4.754;2023-06-26T08:46:56;6.75;;;2.08;;
33714;SDS011;20043;50.998;4.754;2023-06-26T08:52:33;9.13;;;2.00;;
33714;SDS011;20043;50.998;4.754;2023-06-26T08:55:22;8.38;;;1.80;;
33714;SDS011;20043;50.998;4.754;2023-06-26T08:57:51;10.98;;;2.22;;
33714;SDS011;20043;50.998;4.754;2023-06-26T09:00:18;8.55;;;1.65;;
33714;SDS011;20043;50.998;4.754;2023-06-26T09:02:45;9.20;;;1.83;;
33714;SDS011;20043;50.998;4.754;2023-06-26T09:05:11;7.57;;;1.67;;
33714;SDS011;20043;50.998;4.754;2023-06-26T09:07:36;7.22;;;1.73;;
33714;SDS011;20043;50.998;4.754;2023-06-26T09:10:02;8.90;;;1.70;;
33714;SDS011;20043;50.998;4.754;2023-06-26T09:12:28;13.13;;;2.35;;
33714;SDS011;20043;50.998;4.754;2023-06-26T09:14:57;9.35;;;1.95;;
33714;SDS011;20043;50.998;4.754;2023-06-26T09:17:29;9.07;;;2.03;;
33714;SDS011;20043;50.998;4.754;2023-06-26T09:19:55;5.75;;;1.90;;
33714;SDS011;20043;50.998;4.754;2023-06-26T09:22:21;8.90;;;1.73;;
33714;SDS011;20043;50.998;4.754;2023-06-26T09:24:47;8.60;;;1.95;;
33714;SDS011;20043;50.998;4.754;2023-06-26T09:27:13;9.05;;;1.80;;
33714;SDS011;20043;50.998;4.754;2023-06-26T09:29:39;10.32;;;1.95;;
33714;SDS011;20043;50.998;4.754;2023-06-26T09:32:05;9.10;;;1.70;;
33714;SDS011;20043;50.998;4.754;2023-06-26T09:34:34;6.93;;;2.10;;
33714;SDS011;20043;50.998;4.754;2023-06-26T09:36:59;8.52;;;1.73;;
33714;SDS011;20043;50.998;4.754;2023-06-26T09:39:29;9.73;;;1.83;;
33714;SDS011;20043;50.998;4.754;2023-06-26T09:41:56;7.18;;;1.85;;
33714;SDS011;20043;50.998;4.754;2023-06-26T09:44:22;5.50;;;1.50;;
33714;SDS011;20043;50.998;4.754;2023-06-26T09:46:48;5.63;;;1.90;;
33714;SDS011;20043;50.998;4.754;2023-06-26T09:49:14;7.30;;;1.50;;
33714;SDS011;20043;50.998;4.754;2023-06-26T09:51:41;6.57;;;1.88;;
33714;SDS011;20043;50.998;4.754;2023-06-26T09:54:07;7.43;;;1.55;;
33714;SDS011;20043;50.998;4.754;2023-06-26T09:56:37;7.82;;;1.67;;
33714;SDS011;20043;50.998;4.754;2023-06-26T09:59:03;8.95;;;1.63;;
33714;SDS011;20043;50.998;4.754;2023-06-26T10:01:30;6.25;;;1.77;;
33714;SDS011;20043;50.998;4.754;2023-06-26T10:03:57;8.32;;;1.60;;
33714;SDS011;20043;50.998;4.754;2023-06-26T10:06:31;7.25;;;1.77;;
33714;SDS011;20043;50.998;4.754;2023-06-26T10:09:00;5.07;;;1.35;;
33714;SDS011;20043;50.998;4.754;2023-06-26T10:11:30;6.13;;;1.60;;
33714;SDS011;20043;50.998;4.754;2023-06-26T10:14:10;6.45;;;1.58;;
33714;SDS011;20043;50.998;4.754;2023-06-26T10:16:37;4.97;;;1.30;;
33714;SDS011;20043;50.998;4.754;2023-06-26T10:19:07;5.95;;;1.55;;
33714;SDS011;20043;50.998;4.754;2023-06-26T10:21:35;7.75;;;1.45;;
33714;SDS011;20043;50.998;4.754;2023-06-26T10:24:03;7.93;;;1.52;;
33714;SDS011;20043;50.998;4.754;2023-06-26T10:26:31;6.57;;;1.55;;
33714;SDS011;20043;50.998;4.754;2023-06-26T10:29:03;6.35;;;1.60;;
33714;SDS011;20043;50.998;4.754;2023-06-26T10:31:31;2.83;;;1.40;;
33714;SDS011;20043;50.998;4.754;2023-06-26T10:33:57;11.90;;;1.70;;
33714;SDS011;20043;50.998;4.754;2023-06-26T10:36:28;9.50;;;1.95;;
33714;SDS011;20043;50.998;4.754;2023-06-26T10:38:55;6.22;;;1.40;;
33714;SDS011;20043;50.998;4.754;2023-06-26T10:41:22;4.78;;;1.60;;
33714;SDS011;20043;50.998;4.754;2023-06-26T10:43:49;12.55;;;1.77;;
33714;SDS011;20043;50.998;4.754;2023-06-26T10:46:15;7.72;;;1.80;;
33714;SDS011;20043;50.998;4.754;2023-06-26T10:48:59;5.78;;;1.80;;
33714;SDS011;20043;50.998;4.754;2023-06-26T10:51:26;11.48;;;1.48;;
33714;SDS011;20043;50.998;4.754;2023-06-26T10:53:55;8.23;;;1.60;;
33714;SDS011;20043;50.998;4.754;2023-06-26T10:56:23;3.50;;;1.23;;
33714;SDS011;20043;50.998;4.754;2023-06-26T10:59:20;3.78;;;1.70;;
33714;SDS011;20043;50.998;4.754;2023-06-26T11:01:53;5.78;;;1.50;;
33714;SDS011;20043;50.998;4.754;2023-06-26T11:04:35;4.30;;;1.55;;
33714;SDS011;20043;50.998;4.754;2023-06-26T11:10:01;6.88;;;1.75;;
33714;SDS011;20043;50.998;4.754;2023-06-26T11:15:09;6.80;;;1.80;;
33714;SDS011;20043;50.998;4.754;2023-06-26T11:17:42;6.32;;;1.67;;
33714;SDS011;20043;50.998;4.754;2023-06-26T11:20:12;4.88;;;1.30;;
33714;SDS011;20043;50.998;4.754;2023-06-26T11:22:39;4.70;;;1.30;;
33714;SDS011;20043;50.998;4.754;2023-06-26T11:25:06;5.30;;;1.55;;
33714;SDS011;20043;50.998;4.754;2023-06-26T11:30:06;6.10;;;1.30;;
33714;SDS011;20043;50.998;4.754;2023-06-26T11:32:32;4.53;;;1.38;;
33714;SDS011;20043;50.998;4.754;2023-06-26T11:34:58;14.40;;;1.65;;
33714;SDS011;20043;50.998;4.754;2023-06-26T11:37:25;6.97;;;1.60;;
33714;SDS011;20043;50.998;4.754;2023-06-26T11:39:51;6.97;;;1.48;;
33714;SDS011;20043;50.998;4.754;2023-06-26T11:42:17;4.65;;;1.42;;
33714;SDS011;20043;50.998;4.754;2023-06-26T11:44:44;5.45;;;1.45;;
33714;SDS011;20043;50.998;4.754;2023-06-26T11:47:14;8.90;;;1.70;;
33714;SDS011;20043;50.998;4.754;2023-06-26T11:49:44;7.22;;;1.60;;
33714;SDS011;20043;50.998;4.754;2023-06-26T11:52:10;4.53;;;1.55;;
33714;SDS011;20043;50.998;4.754;2023-06-26T11:54:36;7.88;;;1.50;;
33714;SDS011;20043;50.998;4.754;2023-06-26T11:57:02;4.97;;;1.50;;
33714;SDS011;20043;50.998;4.754;2023-06-26T11:59:35;3.83;;;1.35;;
33714;SDS011;20043;50.998;4.754;2023-06-26T12:02:04;6.13;;;1.80;;
33714;SDS011;20043;50.998;4.754;2023-06-26T12:04:38;5.20;;;1.48;;
33714;SDS011;20043;50.998;4.754;2023-06-26T12:07:06;4.22;;;1.60;;
33714;SDS011;20043;50.998;4.754;2023-06-26T12:09:34;7.05;;;1.60;;
33714;SDS011;20043;50.998;4.754;2023-06-26T12:12:07;8.82;;;1.70;;
33714;SDS011;20043;50.998;4.754;2023-06-26T12:14:33;7.25;;;1.45;;
33714;SDS011;20043;50.998;4.754;2023-06-26T12:17:12;3.58;;;1.40;;
33714;SDS011;20043;50.998;4.754;2023-06-26T12:19:42;3.72;;;1.20;;
33714;SDS011;20043;50.998;4.754;2023-06-26T12:22:10;6.55;;;1.42;;
33714;SDS011;20043;50.998;4.754;2023-06-26T12:24:37;4.28;;;1.30;;
33714;SDS011;20043;50.998;4.754;2023-06-26T12:27:14;5.65;;;1.40;;
33714;SDS011;20043;50.998;4.754;2023-06-26T12:29:45;3.53;;;1.30;;
33714;SDS011;20043;50.998;4.754;2023-06-26T12:32:23;5.13;;;1.63;;
33714;SDS011;20043;50.998;4.754;2023-06-26T12:34:50;7.35;;;1.40;;
33714;SDS011;20043;50.998;4.754;2023-06-26T12:37:16;2.55;;;1.10;;
33714;SDS011;20043;50.998;4.754;2023-06-26T12:39:46;4.97;;;1.27;;
33714;SDS011;20043;50.998;4.754;2023-06-26T12:42:19;5.82;;;1.33;;
33714;SDS011;20043;50.998;4.754;2023-06-26T12:44:52;3.17;;;1.45;;
33714;SDS011;20043;50.998;4.754;2023-06-26T12:47:22;9.70;;;1.83;;
33714;SDS011;20043;50.998;4.754;2023-06-26T12:49:50;3.80;;;1.50;;
33714;SDS011;20043;50.998;4.754;2023-06-26T12:52:17;4.63;;;1.35;;
33714;SDS011;20043;50.998;4.754;2023-06-26T12:54:46;7.97;;;1.85;;
33714;SDS011;20043;50.998;4.754;2023-06-26T12:57:16;6.60;;;1.63;;
33714;SDS011;20043;50.998;4.754;2023-06-26T12:59:41;10.15;;;1.98;;
33714;SDS011;20043;50.998;4.754;2023-06-26T13:02:07;30.25;;;3.03;;
33714;SDS011;20043;50.998;4.754;2023-06-26T13:04:33;12.25;;;2.15;;
33714;SDS011;20043;50.998;4.754;2023-06-26T13:07:00;7.15;;;2.25;;
33714;SDS011;20043;50.998;4.754;2023-06-26T13:09:26;5.78;;;1.73;;
33714;SDS011;20043;50.998;4.754;2023-06-26T13:11:53;8.60;;;2.17;;
33714;SDS011;20043;50.998;4.754;2023-06-26T13:14:18;4.32;;;1.88;;
33714;SDS011;20043;50.998;4.754;2023-06-26T13:16:44;4.45;;;1.65;;
33714;SDS011;20043;50.998;4.754;2023-06-26T13:19:10;7.60;;;1.60;;
33714;SDS011;20043;50.998;4.754;2023-06-26T13:21:36;5.22;;;1.45;;
33714;SDS011;20043;50.998;4.754;2023-06-26T13:24:02;11.30;;;2.40;;
33714;SDS011;20043;50.998;4.754;2023-06-26T13:26:31;12.15;;;2.05;;
33714;SDS011;20043;50.998;4.754;2023-06-26T13:28:57;5.22;;;1.50;;
33714;SDS011;20043;50.998;4.754;2023-06-26T13:31:23;5.00;;;1.60;;
33714;SDS011;20043;50.998;4.754;2023-06-26T13:33:49;3.95;;;1.50;;
33714;SDS011;20043;50.998;4.754;2023-06-26T13:36:15;4.35;;;1.55;;
33714;SDS011;20043;50.998;4.754;2023-06-26T13:38:44;7.18;;;1.70;;
33714;SDS011;20043;50.998;4.754;2023-06-26T13:41:10;9.98;;;1.60;;
33714;SDS011;20043;50.998;4.754;2023-06-26T13:43:36;5.65;;;1.58;;
33714;SDS011;20043;50.998;4.754;2023-06-26T13:46:02;5.40;;;1.60;;
33714;SDS011;20043;50.998;4.754;2023-06-26T13:48:28;9.85;;;1.83;;
33714;SDS011;20043;50.998;4.754;2023-06-26T13:50:54;6.35;;;1.95;;
33714;SDS011;20043;50.998;4.754;2023-06-26T13:53:21;2.85;;;1.30;;
33714;SDS011;20043;50.998;4.754;2023-06-26T13:55:47;5.47;;;1.80;;
33714;SDS011;20043;50.998;4.754;2023-06-26T13:58:13;4.63;;;1.70;;
33714;SDS011;20043;50.998;4.754;2023-06-26T14:00:39;7.75;;;1.45;;
33714;SDS011;20043;50.998;4.754;2023-06-26T14:03:06;8.07;;;1.98;;
33714;SDS011;20043;50.998;4.754;2023-06-26T14:05:36;4.60;;;1.60;;
33714;SDS011;20043;50.998;4.754;2023-06-26T14:08:05;7.28;;;2.03;;
33714;SDS011;20043;50.998;4.754;2023-06-26T14:10:32;4.80;;;1.75;;
33714;SDS011;20043;50.998;4.754;2023-06-26T14:13:01;4.25;;;1.63;;
33714;SDS011;20043;50.998;4.754;2023-06-26T14:15:28;4.57;;;1.35;;
33714;SDS011;20043;50.998;4.754;2023-06-26T14:17:53;5.03;;;1.58;;
33714;SDS011;20043;50.998;4.754;2023-06-26T14:20:21;7.47;;;1.35;;
33714;SDS011;20043;50.998;4.754;2023-06-26T14:22:47;7.55;;;1.65;;
33714;SDS011;20043;50.998;4.754;2023-06-26T14:25:14;5.22;;;2.00;;
33714;SDS011;20043;50.998;4.754;2023-06-26T14:27:40;5.50;;;1.67;;
33714;SDS011;20043;50.998;4.754;2023-06-26T14:30:06;5.32;;;1.60;;
33714;SDS011;20043;50.998;4.754;2023-06-26T14:32:32;6.10;;;1.77;;
33714;SDS011;20043;50.998;4.754;2023-06-26T14:34:58;3.35;;;1.38;;
33714;SDS011;20043;50.998;4.754;2023-06-26T14:37:25;5.07;;;1.90;;
33714;SDS011;20043;50.998;4.754;2023-06-26T14:39:51;7.32;;;1.67;;
33714;SDS011;20043;50.998;4.754;2023-06-26T14:42:16;5.03;;;1.73;;
33714;SDS011;20043;50.998;4.754;2023-06-26T14:44:42;16.00;;;1.95;;
33714;SDS011;20043;50.998;4.754;2023-06-26T14:47:08;5.50;;;2.00;;
33714;SDS011;20043;50.998;4.754;2023-06-26T14:49:33;4.13;;;1.33;;
33714;SDS011;20043;50.998;4.754;2023-06-26T14:51:59;10.40;;;2.08;;
33714;SDS011;20043;50.998;4.754;2023-06-26T14:54:25;5.68;;;1.73;;
33714;SDS011;20043;50.998;4.754;2023-06-26T14:56:50;16.35;;;2.17;;
33714;SDS011;20043;50.998;4.754;2023-06-26T14:59:16;14.63;;;2.05;;
33714;SDS011;20043;50.998;4.754;2023-06-26T15:01:41;6.65;;;1.70;;
33714;SDS011;20043;50.998;4.754;2023-06-26T15:04:07;5.15;;;1.70;;
33714;SDS011;20043;50.998;4.754;2023-06-26T15:06:33;6.40;;;1.50;;